Spirit Of Boston — WDD4774 — position and weather

sailwx.info

Track history (hours):
 
Tides and Currents Weather Stations Pressure Air Temp Water Temp Dewpoint Dewpoint Depression Visibility Wind Speed Wind Dir Waves Ship Positions

Spirit Of Boston

Owner: Spirit Cruises, LLC, Boston, MA. More information available from US FCC via Universal Licensing System and Coast Guard Vessel Documentation Center.

Last reported at 2018-Jun-24 23:55 UTC. Time now 2018-Jun-25 19:44 UTC.
Position N 42°21' W 071°03'.

Length 71 m; draft 3.5 m.

Type: Passenger vessel. MMSI: 367148860.

Date/timePositionNaut miles runAvg speedWind from/ knotsBaromVisibWave heightAir tempDewpointWater temp
2018-Jun-24 23:55N 42°21' W 071°03'1 2.6
2018-Jun-24 23:30N 42°21' W 071°01'1 1.1
2018-Jun-24 23:00N 42°21' W 071°02'1 2.2
2018-Jun-24 22:30N 42°22' W 071°03'1 1.9
2018-Jun-24 22:00N 42°21' W 071°03'0 0.0
2018-Jun-24 17:58N 42°21' W 071°03'2 4.2
2018-Jun-24 17:30N 42°20' W 071°00'0 0.4
2018-Jun-24 17:01N 42°20' W 071°00'3 5.8
2018-Jun-24 16:30N 42°22' W 071°03'1 2.2
2018-Jun-24 16:00N 42°21' W 071°03'0 0.0
2018-Jun-24 02:00N 42°21' W 071°03'1 2.0
2018-Jun-24 01:30N 42°22' W 071°03'2 4.7
2018-Jun-24 01:00N 42°20' W 071°00'3 5.1
2018-Jun-24 00:30N 42°20' W 070°57'1 3.0
2018-Jun-24 00:00N 42°20' W 070°59'2 3.8
2018-Jun-23 23:30N 42°21' W 071°01'1 0.2
2018-Jun-23 18:30N 42°21' W 071°03'1 2.2
2018-Jun-23 18:01N 42°21' W 071°01'0 1.0
2018-Jun-23 17:30N 42°20' W 071°01'3 5.2
2018-Jun-23 17:01N 42°22' W 071°03'1 2.6
2018-Jun-23 16:30N 42°21' W 071°03'0 0.0
2018-Jun-23 01:55N 42°21' W 071°03'0 1.1
2018-Jun-23 01:31N 42°21' W 071°02'2 4.3
2018-Jun-23 01:00N 42°20' W 070°60'3 5.3
2018-Jun-23 00:30N 42°20' W 070°56'2 4.6
2018-Jun-23 00:00N 42°19' W 070°59'2 4.8
2018-Jun-22 23:30N 42°21' W 071°01'1 2.9
2018-Jun-22 23:00N 42°21' W 071°03'0 0.0
2018-Jun-22 18:03N 42°21' W 071°03'0 0.3
2018-Jun-22 18:00N 42°21' W 071°03'2 4.0
2018-Jun-22 17:30N 42°20' W 071°00'2 3.3
2018-Jun-22 17:01N 42°21' W 071°02'2 3.0
2018-Jun-22 16:31N 42°22' W 071°03'1 0.1
2018-Jun-22 01:55N 42°21' W 071°03'1 2.9
2018-Jun-22 01:31N 42°22' W 071°03'1 2.8
2018-Jun-22 01:00N 42°21' W 071°02'1 2.8
2018-Jun-22 00:30N 42°20' W 071°00'2 3.1
2018-Jun-22 00:00N 42°20' W 070°58'1 3.0
2018-Jun-21 23:30N 42°20' W 071°00'2 4.0
2018-Jun-21 23:00N 42°21' W 071°03'0 0.0
2018-Jun-21 02:01N 42°21' W 071°03'0 0.0
2018-Jun-21 02:00N 42°21' W 071°03'1 2.6
2018-Jun-21 01:30N 42°21' W 071°01'1 2.4
2018-Jun-21 01:00N 42°20' W 070°59'1 2.5
2018-Jun-21 00:30N 42°20' W 070°58'0 0.7
2018-Jun-21 00:00N 42°20' W 070°58'2 3.0
2018-Jun-20 23:30N 42°20' W 071°00'2 0.3
2018-Jun-20 17:38N 42°21' W 071°03'0 2.9
2018-Jun-20 17:30N 42°21' W 071°02'4 9.0
2018-Jun-20 17:00N 42°20' W 070°56'5 0.3
2018-Jun-20 00:59N 42°21' W 071°03'1 1.2
2018-Jun-20 00:31N 42°21' W 071°02'2 4.4
2018-Jun-20 00:00N 42°20' W 070°60'2 3.1
2018-Jun-19 23:30N 42°21' W 071°01'1 0.1
2018-Jun-19 16:55N 42°21' W 071°03'1 1.9
2018-Jun-19 16:30N 42°21' W 071°01'1 1.2
2018-Jun-19 16:00N 42°21' W 071°02'2 4.0
2018-Jun-19 15:30N 42°22' W 071°03'1 2.5
2018-Jun-19 15:01N 42°21' W 071°03'0 0.0
2018-Jun-18 17:56N 42°21' W 071°03'1 3.6
2018-Jun-18 17:31N 42°21' W 071°01'2 5.0
2018-Jun-18 17:00N 42°22' W 071°03'1 2.0
2018-Jun-18 16:30N 42°23' W 071°03'2 4.5
2018-Jun-18 16:00N 42°21' W 071°03'0 0.0
2018-Jun-18 15:30N 42°21' W 071°03'0 0.0
2018-Jun-18 15:00N 42°21' W 071°03'0 0.0
2018-Jun-18 14:30N 42°21' W 071°03'1 0.1
2018-Jun-18 08:48N 42°21' W 071°02'0 1.5
2018-Jun-18 08:30N 42°21' W 071°02'0 0.8
2018-Jun-18 08:00N 42°22' W 071°03'1 2.6
2018-Jun-18 07:31N 42°21' W 071°01'2 3.1
2018-Jun-18 07:01N 42°20' W 070°60'1 2.7
2018-Jun-18 06:31N 42°20' W 070°58'1 1.8
2018-Jun-18 06:00N 42°20' W 070°59'1 2.3
2018-Jun-18 05:30N 42°20' W 071°00'1 2.8
2018-Jun-18 05:01N 42°21' W 071°02'0 0.1
2018-Jun-18 00:04N 42°21' W 071°03'0 0.0
2018-Jun-18 00:01N 42°21' W 071°03'0 0.8
2018-Jun-17 23:31N 42°21' W 071°02'3 5.5
2018-Jun-17 23:00N 42°20' W 070°59'2 3.9
2018-Jun-17 22:30N 42°21' W 071°01'1 0.2
2018-Jun-17 17:55N 42°21' W 071°03'1 2.7
2018-Jun-17 17:30N 42°21' W 071°01'1 2.4
2018-Jun-17 17:00N 42°21' W 071°02'1 2.1
2018-Jun-17 16:30N 42°22' W 071°03'1 2.5
2018-Jun-17 16:00N 42°21' W 071°03'0 0.0
2018-Jun-17 07:02N 42°21' W 071°03'0 0.0
2018-Jun-17 07:00N 42°21' W 071°03'1 3.0
2018-Jun-17 06:30N 42°21' W 071°01'1 2.3
2018-Jun-17 06:00N 42°20' W 070°59'1 2.5
2018-Jun-17 05:31N 42°21' W 071°01'1 3.0
2018-Jun-17 05:00N 42°21' W 071°02'0 0.8
2018-Jun-17 04:30N 42°21' W 071°02'0 0.8
2018-Jun-17 04:00N 42°21' W 071°03'0 0.0
2018-Jun-17 03:30N 42°21' W 071°03'0 0.0
2018-Jun-17 03:00N 42°21' W 071°03'0 0.0
2018-Jun-17 02:30N 42°21' W 071°03'0 0.0
2018-Jun-17 02:00N 42°21' W 071°03'1 1.0
2018-Jun-17 01:30N 42°21' W 071°02'4 7.9
2018-Jun-17 01:01N 42°20' W 070°57'1 1.9
2018-Jun-17 00:31N 42°19' W 070°56'3 5.9
2018-Jun-17 00:01N 42°20' W 071°00'3 6.1
2018-Jun-16 23:31N 42°22' W 071°03'1 2.5
2018-Jun-16 23:00N 42°21' W 071°03'0 0.0
2018-Jun-16 22:30N 42°21' W 071°03'0 0.0
2018-Jun-16 21:59N 42°21' W 071°03'0 0.0
2018-Jun-16 21:30N 42°21' W 071°03'0 0.0
2018-Jun-16 18:22N 42°21' W 071°03'0 0.0
2018-Jun-16 18:00N 42°21' W 071°03'1 2.4
2018-Jun-16 17:30N 42°21' W 071°01'2 3.0
2018-Jun-16 17:00N 42°22' W 071°03'0 0.5
2018-Jun-16 16:31N 42°22' W 071°03'1 1.5
2018-Jun-16 16:00N 42°21' W 071°03'0 0.0
2018-Jun-16 09:03N 42°21' W 071°03'0 0.7
2018-Jun-16 09:01N 42°21' W 071°03'1 2.9
2018-Jun-16 08:30N 42°21' W 071°01'2 3.2
2018-Jun-16 08:00N 42°21' W 071°02'2 3.3
2018-Jun-16 07:31N 42°23' W 071°03'0 0.8
2018-Jun-16 07:00N 42°23' W 071°03'2 4.2
2018-Jun-16 06:30N 42°21' W 071°01'2 4.0
2018-Jun-16 06:00N 42°20' W 070°59'1 2.9
2018-Jun-16 05:30N 42°21' W 071°01'1 0.4
2018-Jun-16 02:14N 42°21' W 071°03'0 0.1
2018-Jun-16 02:00N 42°21' W 071°03'1 2.7
2018-Jun-16 01:30N 42°22' W 071°03'1 2.7
2018-Jun-16 01:00N 42°21' W 071°03'0 0.0
2018-Jun-16 00:30N 42°21' W 071°03'0 0.0
2018-Jun-16 00:00N 42°21' W 071°03'1 2.7
2018-Jun-15 23:31N 42°22' W 071°03'1 2.6
2018-Jun-15 23:00N 42°21' W 071°03'0 0.0
2018-Jun-15 22:30N 42°21' W 071°03'0 0.0
2018-Jun-15 22:00N 42°21' W 071°03'1 2.6
2018-Jun-15 21:30N 42°22' W 071°03'1 2.6
2018-Jun-15 21:00N 42°21' W 071°03'0 0.0
2018-Jun-15 17:20N 42°21' W 071°03'0 0.0
2018-Jun-15 17:00N 42°21' W 071°03'1 2.8
2018-Jun-15 16:31N 42°21' W 071°01'2 3.0
2018-Jun-15 16:00N 42°21' W 071°02'1 1.8
2018-Jun-15 15:30N 42°22' W 071°03'1 2.6
2018-Jun-15 15:01N 42°21' W 071°03'0 0.0
2018-Jun-15 07:34N 42°21' W 071°03'0 0.1
2018-Jun-15 07:30N 42°21' W 071°03'1 1.5
2018-Jun-15 07:00N 42°21' W 071°01'2 4.4
2018-Jun-15 06:30N 42°20' W 070°59'2 3.8
2018-Jun-15 06:00N 42°21' W 071°01'2 3.2
2018-Jun-15 05:30N 42°22' W 071°03'1 1.5
2018-Jun-15 05:00N 42°23' W 071°03'1 2.8
2018-Jun-15 04:30N 42°21' W 071°02'0 0.5
2018-Jun-15 04:00N 42°21' W 071°03'0 0.0
2018-Jun-15 03:30N 42°21' W 071°03'0 0.0
2018-Jun-15 03:00N 42°21' W 071°03'0 0.0
2018-Jun-15 02:30N 42°21' W 071°03'0 0.0
2018-Jun-15 02:00N 42°21' W 071°03'1 2.7
2018-Jun-15 01:30N 42°22' W 071°03'2 3.8
2018-Jun-15 01:01N 42°21' W 071°01'2 3.8
2018-Jun-15 00:30N 42°20' W 070°59'0 0.1
2018-Jun-14 23:58N 42°20' W 070°59'  
Track history (hours):
 
Tides and Currents Weather Stations Pressure Air Temp Water Temp Dewpoint Dewpoint Depression Visibility Wind Speed Wind Dir Waves Ship Positions

Spirit Of Boston

Owner: Spirit Cruises, LLC, Boston, MA. More information available from US FCC via Universal Licensing System and Coast Guard Vessel Documentation Center.

Last reported at 2018-Jun-24 23:55 UTC. Time now 2018-Jun-25 19:44 UTC.
Position N 42°21' W 071°03'.

Length 71 m; draft 3.5 m.

Type: Passenger vessel. MMSI: 367148860.

Date/timePositionNaut miles runAvg speedWind from/ knotsBaromVisibWave heightAir tempDewpointWater temp
2018-Jun-24 23:55N 42°21' W 071°03'1 2.6
2018-Jun-24 23:30N 42°21' W 071°01'1 1.1
2018-Jun-24 23:00N 42°21' W 071°02'1 2.2
2018-Jun-24 22:30N 42°22' W 071°03'1 1.9
2018-Jun-24 22:00N 42°21' W 071°03'0 0.0
2018-Jun-24 17:58N 42°21' W 071°03'2 4.2
2018-Jun-24 17:30N 42°20' W 071°00'0 0.4
2018-Jun-24 17:01N 42°20' W 071°00'3 5.8
2018-Jun-24 16:30N 42°22' W 071°03'1 2.2
2018-Jun-24 16:00N 42°21' W 071°03'0 0.0
2018-Jun-24 02:00N 42°21' W 071°03'1 2.0
2018-Jun-24 01:30N 42°22' W 071°03'2 4.7
2018-Jun-24 01:00N 42°20' W 071°00'3 5.1
2018-Jun-24 00:30N 42°20' W 070°57'1 3.0
2018-Jun-24 00:00N 42°20' W 070°59'2 3.8
2018-Jun-23 23:30N 42°21' W 071°01'1 0.2
2018-Jun-23 18:30N 42°21' W 071°03'1 2.2
2018-Jun-23 18:01N 42°21' W 071°01'0 1.0
2018-Jun-23 17:30N 42°20' W 071°01'3 5.2
2018-Jun-23 17:01N 42°22' W 071°03'1 2.6
2018-Jun-23 16:30N 42°21' W 071°03'0 0.0
2018-Jun-23 01:55N 42°21' W 071°03'0 1.1
2018-Jun-23 01:31N 42°21' W 071°02'2 4.3
2018-Jun-23 01:00N 42°20' W 070°60'3 5.3
2018-Jun-23 00:30N 42°20' W 070°56'2 4.6
2018-Jun-23 00:00N 42°19' W 070°59'2 4.8
2018-Jun-22 23:30N 42°21' W 071°01'1 2.9
2018-Jun-22 23:00N 42°21' W 071°03'0 0.0
2018-Jun-22 18:03N 42°21' W 071°03'0 0.3
2018-Jun-22 18:00N 42°21' W 071°03'2 4.0
2018-Jun-22 17:30N 42°20' W 071°00'2 3.3
2018-Jun-22 17:01N 42°21' W 071°02'2 3.0
2018-Jun-22 16:31N 42°22' W 071°03'1 0.1
2018-Jun-22 01:55N 42°21' W 071°03'1 2.9
2018-Jun-22 01:31N 42°22' W 071°03'1 2.8
2018-Jun-22 01:00N 42°21' W 071°02'1 2.8
2018-Jun-22 00:30N 42°20' W 071°00'2 3.1
2018-Jun-22 00:00N 42°20' W 070°58'1 3.0
2018-Jun-21 23:30N 42°20' W 071°00'2 4.0
2018-Jun-21 23:00N 42°21' W 071°03'0 0.0
2018-Jun-21 02:01N 42°21' W 071°03'0 0.0
2018-Jun-21 02:00N 42°21' W 071°03'1 2.6
2018-Jun-21 01:30N 42°21' W 071°01'1 2.4
2018-Jun-21 01:00N 42°20' W 070°59'1 2.5
2018-Jun-21 00:30N 42°20' W 070°58'0 0.7
2018-Jun-21 00:00N 42°20' W 070°58'2 3.0
2018-Jun-20 23:30N 42°20' W 071°00'2 0.3
2018-Jun-20 17:38N 42°21' W 071°03'0 2.9
2018-Jun-20 17:30N 42°21' W 071°02'4 9.0
2018-Jun-20 17:00N 42°20' W 070°56'5 0.3
2018-Jun-20 00:59N 42°21' W 071°03'1 1.2
2018-Jun-20 00:31N 42°21' W 071°02'2 4.4
2018-Jun-20 00:00N 42°20' W 070°60'2 3.1
2018-Jun-19 23:30N 42°21' W 071°01'1 0.1
2018-Jun-19 16:55N 42°21' W 071°03'1 1.9
2018-Jun-19 16:30N 42°21' W 071°01'1 1.2
2018-Jun-19 16:00N 42°21' W 071°02'2 4.0
2018-Jun-19 15:30N 42°22' W 071°03'1 2.5
2018-Jun-19 15:01N 42°21' W 071°03'0 0.0
2018-Jun-18 17:56N 42°21' W 071°03'1 3.6
2018-Jun-18 17:31N 42°21' W 071°01'2 5.0
2018-Jun-18 17:00N 42°22' W 071°03'1 2.0
2018-Jun-18 16:30N 42°23' W 071°03'2 4.5
2018-Jun-18 16:00N 42°21' W 071°03'0 0.0
2018-Jun-18 15:30N 42°21' W 071°03'0 0.0
2018-Jun-18 15:00N 42°21' W 071°03'0 0.0
2018-Jun-18 14:30N 42°21' W 071°03'1 0.1
2018-Jun-18 08:48N 42°21' W 071°02'0 1.5
2018-Jun-18 08:30N 42°21' W 071°02'0 0.8
2018-Jun-18 08:00N 42°22' W 071°03'1 2.6
2018-Jun-18 07:31N 42°21' W 071°01'2 3.1
2018-Jun-18 07:01N 42°20' W 070°60'1 2.7
2018-Jun-18 06:31N 42°20' W 070°58'1 1.8
2018-Jun-18 06:00N 42°20' W 070°59'1 2.3
2018-Jun-18 05:30N 42°20' W 071°00'1 2.8
2018-Jun-18 05:01N 42°21' W 071°02'0 0.1
2018-Jun-18 00:04N 42°21' W 071°03'0 0.0
2018-Jun-18 00:01N 42°21' W 071°03'0 0.8
2018-Jun-17 23:31N 42°21' W 071°02'3 5.5
2018-Jun-17 23:00N 42°20' W 070°59'2 3.9
2018-Jun-17 22:30N 42°21' W 071°01'1 0.2
2018-Jun-17 17:55N 42°21' W 071°03'1 2.7
2018-Jun-17 17:30N 42°21' W 071°01'1 2.4
2018-Jun-17 17:00N 42°21' W 071°02'1 2.1
2018-Jun-17 16:30N 42°22' W 071°03'1 2.5
2018-Jun-17 16:00N 42°21' W 071°03'0 0.0
2018-Jun-17 07:02N 42°21' W 071°03'0 0.0
2018-Jun-17 07:00N 42°21' W 071°03'1 3.0
2018-Jun-17 06:30N 42°21' W 071°01'1 2.3
2018-Jun-17 06:00N 42°20' W 070°59'1 2.5
2018-Jun-17 05:31N 42°21' W 071°01'1 3.0
2018-Jun-17 05:00N 42°21' W 071°02'0 0.8
2018-Jun-17 04:30N 42°21' W 071°02'0 0.8
2018-Jun-17 04:00N 42°21' W 071°03'0 0.0
2018-Jun-17 03:30N 42°21' W 071°03'0 0.0
2018-Jun-17 03:00N 42°21' W 071°03'0 0.0
2018-Jun-17 02:30N 42°21' W 071°03'0 0.0
2018-Jun-17 02:00N 42°21' W 071°03'1 1.0
2018-Jun-17 01:30N 42°21' W 071°02'4 7.9
2018-Jun-17 01:01N 42°20' W 070°57'1 1.9
2018-Jun-17 00:31N 42°19' W 070°56'3 5.9
2018-Jun-17 00:01N 42°20' W 071°00'3 6.1
2018-Jun-16 23:31N 42°22' W 071°03'1 2.5
2018-Jun-16 23:00N 42°21' W 071°03'0 0.0
2018-Jun-16 22:30N 42°21' W 071°03'0 0.0
2018-Jun-16 21:59N 42°21' W 071°03'0 0.0
2018-Jun-16 21:30N 42°21' W 071°03'0 0.0
2018-Jun-16 18:22N 42°21' W 071°03'0 0.0
2018-Jun-16 18:00N 42°21' W 071°03'1 2.4
2018-Jun-16 17:30N 42°21' W 071°01'2 3.0
2018-Jun-16 17:00N 42°22' W 071°03'0 0.5
2018-Jun-16 16:31N 42°22' W 071°03'1 1.5
2018-Jun-16 16:00N 42°21' W 071°03'0 0.0
2018-Jun-16 09:03N 42°21' W 071°03'0 0.7
2018-Jun-16 09:01N 42°21' W 071°03'1 2.9
2018-Jun-16 08:30N 42°21' W 071°01'2 3.2
2018-Jun-16 08:00N 42°21' W 071°02'2 3.3
2018-Jun-16 07:31N 42°23' W 071°03'0 0.8
2018-Jun-16 07:00N 42°23' W 071°03'2 4.2
2018-Jun-16 06:30N 42°21' W 071°01'2 4.0
2018-Jun-16 06:00N 42°20' W 070°59'1 2.9
2018-Jun-16 05:30N 42°21' W 071°01'1 0.4
2018-Jun-16 02:14N 42°21' W 071°03'0 0.1
2018-Jun-16 02:00N 42°21' W 071°03'1 2.7
2018-Jun-16 01:30N 42°22' W 071°03'1 2.7
2018-Jun-16 01:00N 42°21' W 071°03'0 0.0
2018-Jun-16 00:30N 42°21' W 071°03'0 0.0
2018-Jun-16 00:00N 42°21' W 071°03'1 2.7
2018-Jun-15 23:31N 42°22' W 071°03'1 2.6
2018-Jun-15 23:00N 42°21' W 071°03'0 0.0
2018-Jun-15 22:30N 42°21' W 071°03'0 0.0
2018-Jun-15 22:00N 42°21' W 071°03'1 2.6
2018-Jun-15 21:30N 42°22' W 071°03'1 2.6
2018-Jun-15 21:00N 42°21' W 071°03'0 0.0
2018-Jun-15 17:20N 42°21' W 071°03'0 0.0
2018-Jun-15 17:00N 42°21' W 071°03'1 2.8
2018-Jun-15 16:31N 42°21' W 071°01'2 3.0
2018-Jun-15 16:00N 42°21' W 071°02'1 1.8
2018-Jun-15 15:30N 42°22' W 071°03'1 2.6
2018-Jun-15 15:01N 42°21' W 071°03'0 0.0
2018-Jun-15 07:34N 42°21' W 071°03'0 0.1
2018-Jun-15 07:30N 42°21' W 071°03'1 1.5
2018-Jun-15 07:00N 42°21' W 071°01'2 4.4
2018-Jun-15 06:30N 42°20' W 070°59'2 3.8
2018-Jun-15 06:00N 42°21' W 071°01'2 3.2
2018-Jun-15 05:30N 42°22' W 071°03'1 1.5
2018-Jun-15 05:00N 42°23' W 071°03'1 2.8
2018-Jun-15 04:30N 42°21' W 071°02'0 0.5
2018-Jun-15 04:00N 42°21' W 071°03'0 0.0
2018-Jun-15 03:30N 42°21' W 071°03'0 0.0
2018-Jun-15 03:00N 42°21' W 071°03'0 0.0
2018-Jun-15 02:30N 42°21' W 071°03'0 0.0
2018-Jun-15 02:00N 42°21' W 071°03'1 2.7
2018-Jun-15 01:30N 42°22' W 071°03'2 3.8
2018-Jun-15 01:01N 42°21' W 071°01'2 3.8
2018-Jun-15 00:30N 42°20' W 070°59'0 0.1
2018-Jun-14 23:58N 42°20' W 070°59'  

Dump ship's entire track history